sensor_id;sensor_type;location;lat;lon;timestamp;pressure;altitude;pressure_sealevel;temperature;humidity
41573;BME280;27286;47.870;19.006;2022-12-04T00:00:20;100016.88;;;4.62;86.28
41573;BME280;27286;47.870;19.006;2022-12-04T00:02:45;100017.81;;;4.55;87.18
41573;BME280;27286;47.870;19.006;2022-12-04T00:05:11;100021.25;;;4.52;87.29
41573;BME280;27286;47.870;19.006;2022-12-04T00:07:36;100027.38;;;4.41;87.95
41573;BME280;27286;47.870;19.006;2022-12-04T00:10:02;100020.53;;;4.32;88.19
41573;BME280;27286;47.870;19.006;2022-12-04T00:12:28;100034.34;;;4.23;88.77
41573;BME280;27286;47.870;19.006;2022-12-04T00:14:53;100033.59;;;4.08;90.08
41573;BME280;27286;47.870;19.006;2022-12-04T00:17:19;100030.09;;;4.16;90.21
41573;BME280;27286;47.870;19.006;2022-12-04T00:19:44;100018.97;;;4.08;89.53
41573;BME280;27286;47.870;19.006;2022-12-04T00:22:10;100034.44;;;4.08;89.90
41573;BME280;27286;47.870;19.006;2022-12-04T00:24:35;100036.19;;;4.03;90.31
41573;BME280;27286;47.870;19.006;2022-12-04T00:27:01;100038.63;;;4.28;88.54
41573;BME280;27286;47.870;19.006;2022-12-04T00:29:27;100040.38;;;4.22;87.99
41573;BME280;27286;47.870;19.006;2022-12-04T00:31:52;100034.47;;;4.05;89.15
41573;BME280;27286;47.870;19.006;2022-12-04T00:34:18;100038.59;;;4.29;88.29
41573;BME280;27286;47.870;19.006;2022-12-04T00:36:43;100039.56;;;4.11;88.71
41573;BME280;27286;47.870;19.006;2022-12-04T00:39:09;100034.44;;;4.08;88.64
41573;BME280;27286;47.870;19.006;2022-12-04T00:41:34;100028.56;;;3.86;89.90
41573;BME280;27286;47.870;19.006;2022-12-04T00:44:00;100041.44;;;3.86;90.41
41573;BME280;27286;47.870;19.006;2022-12-04T00:46:27;100036.19;;;4.06;89.65
41573;BME280;27286;47.870;19.006;2022-12-04T00:48:53;100043.13;;;3.87;90.21
41573;BME280;27286;47.870;19.006;2022-12-04T00:51:22;100038.91;;;3.73;91.01
41573;BME280;27286;47.870;19.006;2022-12-04T00:53:48;100039.72;;;3.78;91.66
41573;BME280;27286;47.870;19.006;2022-12-04T00:56:16;100035.44;;;3.78;91.15
41573;BME280;27286;47.870;19.006;2022-12-04T00:58:42;100032.81;;;3.89;90.84
41573;BME280;27286;47.870;19.006;2022-12-04T01:01:11;100034.53;;;3.85;91.11
41573;BME280;27286;47.870;19.006;2022-12-04T01:03:37;100031.97;;;3.81;90.89
41573;BME280;27286;47.870;19.006;2022-12-04T01:06:03;100029.47;;;3.64;91.71
41573;BME280;27286;47.870;19.006;2022-12-04T01:08:29;100026.81;;;3.84;91.23
41573;BME280;27286;47.870;19.006;2022-12-04T01:10:54;100030.28;;;3.78;91.76
41573;BME280;27286;47.870;19.006;2022-12-04T01:13:21;100024.28;;;3.78;91.25
41573;BME280;27286;47.870;19.006;2022-12-04T01:15:47;100019.22;;;3.56;91.72
41573;BME280;27286;47.870;19.006;2022-12-04T01:18:14;100025.25;;;3.45;92.58
41573;BME280;27286;47.870;19.006;2022-12-04T01:20:39;100019.28;;;3.32;92.90
41573;BME280;27286;47.870;19.006;2022-12-04T01:23:05;100021.88;;;3.17;93.21
41573;BME280;27286;47.870;19.006;2022-12-04T01:25:31;100021.03;;;3.21;93.04
41573;BME280;27286;47.870;19.006;2022-12-04T01:27:56;100018.47;;;3.15;92.84
41573;BME280;27286;47.870;19.006;2022-12-04T01:30:22;100009.06;;;2.92;93.64
41573;BME280;27286;47.870;19.006;2022-12-04T01:32:47;100014.22;;;2.79;94.93
41573;BME280;27286;47.870;19.006;2022-12-04T01:35:13;100011.66;;;2.66;94.99
41573;BME280;27286;47.870;19.006;2022-12-04T01:37:38;100017.66;;;2.76;94.12
41573;BME280;27286;47.870;19.006;2022-12-04T01:40:04;100011.66;;;2.83;94.40
41573;BME280;27286;47.870;19.006;2022-12-04T01:42:30;100015.06;;;2.81;95.11
41573;BME280;27286;47.870;19.006;2022-12-04T01:45:33;100016.78;;;3.03;95.47
41573;BME280;27286;47.870;19.006;2022-12-04T01:50:40;100011.59;;;3.26;94.91
41573;BME280;27286;47.870;19.006;2022-12-04T01:53:06;100007.28;;;3.28;94.66
41573;BME280;27286;47.870;19.006;2022-12-04T01:55:32;100007.28;;;3.31;94.39
41573;BME280;27286;47.870;19.006;2022-12-04T01:57:57;99990.97;;;3.38;94.28
41573;BME280;27286;47.870;19.006;2022-12-04T02:00:23;99997.72;;;3.63;93.34
41573;BME280;27286;47.870;19.006;2022-12-04T02:02:49;99989.88;;;3.85;91.61
41573;BME280;27286;47.870;19.006;2022-12-04T02:05:19;99993.31;;;3.93;90.57
41573;BME280;27286;47.870;19.006;2022-12-04T02:07:48;99992.47;;;3.83;91.20
41573;BME280;27286;47.870;19.006;2022-12-04T02:10:15;99993.34;;;3.84;91.28
41573;BME280;27286;47.870;19.006;2022-12-04T02:13:06;100001.03;;;3.93;90.98
41573;BME280;27286;47.870;19.006;2022-12-04T02:16:12;100007.75;;;4.21;89.42
41573;BME280;27286;47.870;19.006;2022-12-04T02:21:38;100013.03;;;3.94;90.84
41573;BME280;27286;47.870;19.006;2022-12-04T02:37:20;100020.66;;;4.12;87.46
41573;BME280;27286;47.870;19.006;2022-12-04T02:40:22;100015.66;;;3.85;87.48
41573;BME280;27286;47.870;19.006;2022-12-04T02:42:43;100020.94;;;3.56;89.12
41573;BME280;27286;47.870;19.006;2022-12-04T02:45:14;100022.72;;;3.31;90.55
41573;BME280;27286;47.870;19.006;2022-12-04T02:47:43;100009.91;;;3.10;92.05
41573;BME280;27286;47.870;19.006;2022-12-04T02:50:13;100011.63;;;3.00;93.42
41573;BME280;27286;47.870;19.006;2022-12-04T02:52:43;100006.50;;;2.92;95.37
41573;BME280;27286;47.870;19.006;2022-12-04T02:55:19;100009.94;;;2.93;96.04
41573;BME280;27286;47.870;19.006;2022-12-04T02:57:52;100013.34;;;3.04;96.37
41573;BME280;27286;47.870;19.006;2022-12-04T03:00:21;100012.47;;;3.23;95.02
41573;BME280;27286;47.870;19.006;2022-12-04T03:02:54;100010.78;;;3.04;95.23
41573;BME280;27286;47.870;19.006;2022-12-04T03:05:23;100020.19;;;3.02;96.01
41573;BME280;27286;47.870;19.006;2022-12-04T03:07:55;100012.47;;;2.99;96.81
41573;BME280;27286;47.870;19.006;2022-12-04T03:10:26;100007.34;;;3.08;97.01
41573;BME280;27286;47.870;19.006;2022-12-04T03:15:30;100009.91;;;3.08;96.97
41573;BME280;27286;47.870;19.006;2022-12-04T03:18:02;100014.22;;;2.97;96.76
41573;BME280;27286;47.870;19.006;2022-12-04T03:20:31;100015.94;;;3.03;96.72
41573;BME280;27286;47.870;19.006;2022-12-04T03:23:02;100015.06;;;3.10;96.88
41573;BME280;27286;47.870;19.006;2022-12-04T03:25:34;100010.78;;;3.06;96.38
41573;BME280;27286;47.870;19.006;2022-12-04T03:28:05;100009.06;;;3.05;96.88
41573;BME280;27286;47.870;19.006;2022-12-04T03:30:43;99999.63;;;3.02;97.26
41573;BME280;27286;47.870;19.006;2022-12-04T03:33:16;100003.03;;;3.10;97.49
41573;BME280;27286;47.870;19.006;2022-12-04T03:35:50;99999.63;;;3.07;97.32
41573;BME280;27286;47.870;19.006;2022-12-04T03:39:40;100002.19;;;3.13;98.02
41573;BME280;27286;47.870;19.006;2022-12-04T03:44:40;100003.03;;;3.21;98.03
41573;BME280;27286;47.870;19.006;2022-12-04T03:47:20;99999.59;;;3.22;97.70
41573;BME280;27286;47.870;19.006;2022-12-04T03:52:58;99982.41;;;3.27;97.64
41573;BME280;27286;47.870;19.006;2022-12-04T03:57:40;99991.34;;;4.32;91.47
41573;BME280;27286;47.870;19.006;2022-12-04T04:00:14;99996.69;;;3.98;91.04
41573;BME280;27286;47.870;19.006;2022-12-04T04:02:47;100000.09;;;4.09;91.92
41573;BME280;27286;47.870;19.006;2022-12-04T04:05:16;99991.47;;;4.10;90.57
41573;BME280;27286;47.870;19.006;2022-12-04T04:07:47;99994.28;;;3.71;91.74
41573;BME280;27286;47.870;19.006;2022-12-04T04:10:16;99997.63;;;3.85;92.51
41573;BME280;27286;47.870;19.006;2022-12-04T04:12:54;99998.63;;;3.56;92.85
41573;BME280;27286;47.870;19.006;2022-12-04T04:15:44;99994.34;;;3.54;94.17
41573;BME280;27286;47.870;19.006;2022-12-04T04:18:29;100006.41;;;3.41;95.33
41573;BME280;27286;47.870;19.006;2022-12-04T04:21:18;100003.78;;;3.47;95.82
41573;BME280;27286;47.870;19.006;2022-12-04T04:24:04;100007.28;;;3.37;95.79
41573;BME280;27286;47.870;19.006;2022-12-04T04:26:45;100008.06;;;3.54;96.09
41573;BME280;27286;47.870;19.006;2022-12-04T04:29:12;100001.91;;;3.92;94.04
41573;BME280;27286;47.870;19.006;2022-12-04T04:39:33;100012.47;;;3.16;96.82
41573;BME280;27286;47.870;19.006;2022-12-04T04:42:05;100015.06;;;3.08;97.73
41573;BME280;27286;47.870;19.006;2022-12-04T04:44:59;100018.47;;;3.01;98.10
41573;BME280;27286;47.870;19.006;2022-12-04T04:47:33;100022.78;;;3.04;98.55
41573;BME280;27286;47.870;19.006;2022-12-04T04:50:02;100023.63;;;3.10;98.53
41573;BME280;27286;47.870;19.006;2022-12-04T04:52:29;100029.59;;;3.17;98.67
41573;BME280;27286;47.870;19.006;2022-12-04T04:54:55;100020.84;;;3.77;96.42
41573;BME280;27286;47.870;19.006;2022-12-04T04:57:28;100001.88;;;3.93;93.68
41573;BME280;27286;47.870;19.006;2022-12-04T04:59:54;100012.94;;;4.11;91.89
41573;BME280;27286;47.870;19.006;2022-12-04T05:02:19;100020.72;;;4.05;92.22
41573;BME280;27286;47.870;19.006;2022-12-04T05:04:45;100033.66;;;3.92;93.11
41573;BME280;27286;47.870;19.006;2022-12-04T05:07:10;100020.84;;;3.79;94.50
41573;BME280;27286;47.870;19.006;2022-12-04T05:09:36;100020.81;;;3.82;93.66
41573;BME280;27286;47.870;19.006;2022-12-04T05:12:01;100013.06;;;3.89;94.43
41573;BME280;27286;47.870;19.006;2022-12-04T05:14:26;100006.81;;;4.30;93.06
41573;BME280;27286;47.870;19.006;2022-12-04T05:16:52;100017.28;;;4.01;92.24
41573;BME280;27286;47.870;19.006;2022-12-04T05:19:17;100021.41;;;4.31;91.42
41573;BME280;27286;47.870;19.006;2022-12-04T05:22:01;100015.56;;;4.08;92.51
41573;BME280;27286;47.870;19.006;2022-12-04T05:24:26;100017.22;;;4.13;92.11
41573;BME280;27286;47.870;19.006;2022-12-04T05:26:52;100005.31;;;3.92;93.24
41573;BME280;27286;47.870;19.006;2022-12-04T05:29:17;99998.34;;;4.11;93.68
41573;BME280;27286;47.870;19.006;2022-12-04T05:31:42;100005.28;;;3.97;93.42
41573;BME280;27286;47.870;19.006;2022-12-04T05:34:08;99997.63;;;3.85;94.74
41573;BME280;27286;47.870;19.006;2022-12-04T05:36:33;100010.53;;;3.82;95.61
41573;BME280;27286;47.870;19.006;2022-12-04T05:38:59;100005.38;;;3.86;94.93
41573;BME280;27286;47.870;19.006;2022-12-04T05:41:24;100002.78;;;3.83;95.44
41573;BME280;27286;47.870;19.006;2022-12-04T05:43:49;100007.09;;;3.80;95.43
41573;BME280;27286;47.870;19.006;2022-12-04T05:46:15;100004.56;;;3.74;96.06
41573;BME280;27286;47.870;19.006;2022-12-04T05:48:40;100008.88;;;3.70;96.27
41573;BME280;27286;47.870;19.006;2022-12-04T05:51:08;100001.94;;;3.80;95.98
41573;BME280;27286;47.870;19.006;2022-12-04T05:53:34;100000.22;;;3.83;95.79
41573;BME280;27286;47.870;19.006;2022-12-04T05:56:00;100009.69;;;3.75;95.92
41573;BME280;27286;47.870;19.006;2022-12-04T05:58:27;100007.16;;;3.72;96.23
41573;BME280;27286;47.870;19.006;2022-12-04T06:00:53;100014.84;;;3.69;96.43
41573;BME280;27286;47.870;19.006;2022-12-04T06:03:19;100007.16;;;3.63;96.74
41573;BME280;27286;47.870;19.006;2022-12-04T06:05:44;100017.44;;;3.66;97.00
41573;BME280;27286;47.870;19.006;2022-12-04T06:08:10;100005.44;;;3.67;96.72
41573;BME280;27286;47.870;19.006;2022-12-04T06:10:35;100017.44;;;3.75;96.41
41573;BME280;27286;47.870;19.006;2022-12-04T06:13:01;100018.94;;;4.14;93.85
41573;BME280;27286;47.870;19.006;2022-12-04T06:15:26;100028.53;;;3.88;93.98
41573;BME280;27286;47.870;19.006;2022-12-04T06:17:51;100032.88;;;3.74;94.70
41573;BME280;27286;47.870;19.006;2022-12-04T06:20:17;100039.75;;;3.72;95.96
41573;BME280;27286;47.870;19.006;2022-12-04T06:22:42;100025.22;;;3.58;96.81
41573;BME280;27286;47.870;19.006;2022-12-04T06:25:08;100048.41;;;3.49;97.09
41573;BME280;27286;47.870;19.006;2022-12-04T06:27:34;100028.66;;;3.57;97.73
41573;BME280;27286;47.870;19.006;2022-12-04T06:29:59;100026.09;;;3.50;97.03
41573;BME280;27286;47.870;19.006;2022-12-04T06:32:25;100016.63;;;3.58;96.86
41573;BME280;27286;47.870;19.006;2022-12-04T06:34:51;100011.50;;;3.55;97.13
41573;BME280;27286;47.870;19.006;2022-12-04T06:37:18;100030.38;;;3.55;96.95
41573;BME280;27286;47.870;19.006;2022-12-04T06:39:43;100026.97;;;3.44;97.54
41573;BME280;27286;47.870;19.006;2022-12-04T06:42:09;100016.72;;;3.40;97.68
41573;BME280;27286;47.870;19.006;2022-12-04T06:44:34;100029.56;;;3.35;98.18
41573;BME280;27286;47.870;19.006;2022-12-04T06:47:00;100027.88;;;3.26;98.62
41573;BME280;27286;47.870;19.006;2022-12-04T06:49:25;100032.16;;;3.29;99.14
41573;BME280;27286;47.870;19.006;2022-12-04T06:51:50;100030.25;;;3.89;97.20
41573;BME280;27286;47.870;19.006;2022-12-04T06:54:16;100026.06;;;3.62;95.52
41573;BME280;27286;47.870;19.006;2022-12-04T06:56:41;100030.38;;;3.57;96.66
41573;BME280;27286;47.870;19.006;2022-12-04T06:59:07;100025.22;;;3.60;96.26
41573;BME280;27286;47.870;19.006;2022-12-04T07:01:33;100014.78;;;3.84;95.85
41573;BME280;27286;47.870;19.006;2022-12-04T07:03:59;100032.81;;;3.86;94.51
41573;BME280;27286;47.870;19.006;2022-12-04T07:06:27;100036.38;;;3.56;95.49
41573;BME280;27286;47.870;19.006;2022-12-04T07:09:01;100034.66;;;3.50;96.74
41573;BME280;27286;47.870;19.006;2022-12-04T07:11:30;100044.13;;;3.47;97.09
41573;BME280;27286;47.870;19.006;2022-12-04T07:13:56;100045.81;;;3.61;97.15
41573;BME280;27286;47.870;19.006;2022-12-04T07:16:23;100038.06;;;3.72;95.58
41573;BME280;27286;47.870;19.006;2022-12-04T07:18:49;100043.22;;;3.63;95.89
41573;BME280;27286;47.870;19.006;2022-12-04T07:21:20;100031.19;;;3.67;96.69
41573;BME280;27286;47.870;19.006;2022-12-04T07:23:56;100032.84;;;3.83;96.24
41573;BME280;27286;47.870;19.006;2022-12-04T07:26:23;100020.81;;;3.82;95.84
41573;BME280;27286;47.870;19.006;2022-12-04T07:28:48;100026.78;;;3.93;95.96
41573;BME280;27286;47.870;19.006;2022-12-04T07:31:16;100023.94;;;4.36;94.12
41573;BME280;27286;47.870;19.006;2022-12-04T07:33:42;100023.03;;;4.46;92.92
41573;BME280;27286;47.870;19.006;2022-12-04T07:36:10;100029.03;;;4.48;91.76
41573;BME280;27286;47.870;19.006;2022-12-04T07:38:36;100039.06;;;4.84;91.43
41573;BME280;27286;47.870;19.006;2022-12-04T07:41:06;100029.34;;;5.12;88.59
41573;BME280;27286;47.870;19.006;2022-12-04T07:43:32;100026.84;;;5.05;88.49
41573;BME280;27286;47.870;19.006;2022-12-04T07:46:02;100022.53;;;5.07;88.58
41573;BME280;27286;47.870;19.006;2022-12-04T07:48:27;100025.00;;;5.16;88.08
41573;BME280;27286;47.870;19.006;2022-12-04T07:51:04;100019.78;;;5.24;87.27
41573;BME280;27286;47.870;19.006;2022-12-04T07:53:30;100026.53;;;5.38;86.88
41573;BME280;27286;47.870;19.006;2022-12-04T07:55:55;100028.22;;;5.41;85.34
41573;BME280;27286;47.870;19.006;2022-12-04T07:58:21;100031.81;;;5.26;86.25
41573;BME280;27286;47.870;19.006;2022-12-04T08:00:46;100028.47;;;5.13;87.88
41573;BME280;27286;47.870;19.006;2022-12-04T08:03:11;100034.41;;;5.20;87.81
41573;BME280;27286;47.870;19.006;2022-12-04T08:05:37;100040.28;;;5.36;86.04
41573;BME280;27286;47.870;19.006;2022-12-04T08:08:02;100054.09;;;5.32;87.30
41573;BME280;27286;47.870;19.006;2022-12-04T08:10:27;100046.97;;;5.57;85.48
41573;BME280;27286;47.870;19.006;2022-12-04T08:12:53;100056.53;;;6.22;81.66
41573;BME280;27286;47.870;19.006;2022-12-04T08:15:18;100039.66;;;6.57;80.51
41573;BME280;27286;47.870;19.006;2022-12-04T08:17:43;100047.81;;;7.34;76.91
41573;BME280;27286;47.870;19.006;2022-12-04T08:20:09;100035.91;;;8.12;73.67
41573;BME280;27286;47.870;19.006;2022-12-04T08:22:34;100048.81;;;9.25;70.15
41573;BME280;27286;47.870;19.006;2022-12-04T08:25:00;100028.56;;;9.69;66.67
41573;BME280;27286;47.870;19.006;2022-12-04T08:27:25;100036.03;;;10.10;64.18
41573;BME280;27286;47.870;19.006;2022-12-04T08:29:51;100037.19;;;9.38;66.53
41573;BME280;27286;47.870;19.006;2022-12-04T08:32:16;100031.03;;;9.10;66.82
41573;BME280;27286;47.870;19.006;2022-12-04T08:34:41;100019.25;;;8.61;68.04
41573;BME280;27286;47.870;19.006;2022-12-04T08:37:07;100021.59;;;8.34;70.59
41573;BME280;27286;47.870;19.006;2022-12-04T08:39:32;100024.22;;;8.31;70.83
41573;BME280;27286;47.870;19.006;2022-12-04T08:41:57;100022.91;;;8.13;71.71
41573;BME280;27286;47.870;19.006;2022-12-04T08:44:23;100019.22;;;7.83;72.79
41573;BME280;27286;47.870;19.006;2022-12-04T08:46:48;100015.56;;;8.32;72.72
41573;BME280;27286;47.870;19.006;2022-12-04T08:49:13;100017.84;;;8.83;69.92
41573;BME280;27286;47.870;19.006;2022-12-04T08:51:39;100018.88;;;9.10;66.99
41573;BME280;27286;47.870;19.006;2022-12-04T08:54:06;100006.16;;;8.65;69.43
41573;BME280;27286;47.870;19.006;2022-12-04T08:56:33;100018.34;;;8.97;67.75
41573;BME280;27286;47.870;19.006;2022-12-04T08:59:00;100007.97;;;9.30;67.76
41573;BME280;27286;47.870;19.006;2022-12-04T09:01:27;100014.22;;;9.54;66.43
41573;BME280;27286;47.870;19.006;2022-12-04T09:03:52;100005.06;;;10.01;64.93
41573;BME280;27286;47.870;19.006;2022-12-04T09:06:19;100003.66;;;9.91;65.41
41573;BME280;27286;47.870;19.006;2022-12-04T09:08:44;100005.97;;;10.00;65.35
41573;BME280;27286;47.870;19.006;2022-12-04T09:11:13;99995.22;;;9.83;63.98
41573;BME280;27286;47.870;19.006;2022-12-04T09:13:39;99989.56;;;9.69;65.83
41573;BME280;27286;47.870;19.006;2022-12-04T09:16:08;99990.94;;;10.10;63.91
41573;BME280;27286;47.870;19.006;2022-12-04T09:18:34;99983.34;;;10.60;62.63
41573;BME280;27286;47.870;19.006;2022-12-04T09:21:02;99982.16;;;11.44;60.59
41573;BME280;27286;47.870;19.006;2022-12-04T09:23:28;99990.75;;;11.95;57.04
41573;BME280;27286;47.870;19.006;2022-12-04T09:25:54;99978.63;;;12.16;56.64
41573;BME280;27286;47.870;19.006;2022-12-04T09:28:19;99979.22;;;12.00;55.58
41573;BME280;27286;47.870;19.006;2022-12-04T09:31:01;99975.13;;;11.70;57.36
41573;BME280;27286;47.870;19.006;2022-12-04T09:33:27;99965.53;;;11.47;58.38
41573;BME280;27286;47.870;19.006;2022-12-04T09:35:53;99968.16;;;11.22;57.87
41573;BME280;27286;47.870;19.006;2022-12-04T09:38:19;99971.31;;;11.07;59.90
41573;BME280;27286;47.870;19.006;2022-12-04T09:43:27;99961.25;;;11.93;57.61
41573;BME280;27286;47.870;19.006;2022-12-04T09:45:59;99968.59;;;12.49;55.00
41573;BME280;27286;47.870;19.006;2022-12-04T09:48:35;99967.22;;;12.82;53.41
41573;BME280;27286;47.870;19.006;2022-12-04T09:51:02;99963.72;;;13.43;51.94
41573;BME280;27286;47.870;19.006;2022-12-04T09:53:42;99954.94;;;13.64;51.76
41573;BME280;27286;47.870;19.006;2022-12-04T09:56:14;99958.59;;;13.21;53.98
41573;BME280;27286;47.870;19.006;2022-12-04T09:58:50;99960.53;;;14.13;50.65
41573;BME280;27286;47.870;19.006;2022-12-04T10:04:10;99958.03;;;14.65;50.02
41573;BME280;27286;47.870;19.006;2022-12-04T10:06:52;99954.00;;;14.75;47.77
41573;BME280;27286;47.870;19.006;2022-12-04T10:09:31;99959.06;;;14.61;48.47
41573;BME280;27286;47.870;19.006;2022-12-04T10:12:21;99944.44;;;14.91;47.61
41573;BME280;27286;47.870;19.006;2022-12-04T10:17:53;99932.09;;;15.44;46.78
41573;BME280;27286;47.870;19.006;2022-12-04T10:25:55;99914.63;;;15.76;45.37
41573;BME280;27286;47.870;19.006;2022-12-04T10:30:57;99917.56;;;15.54;45.71
41573;BME280;27286;47.870;19.006;2022-12-04T10:33:43;99918.13;;;15.43;45.56
41573;BME280;27286;47.870;19.006;2022-12-04T10:36:14;99917.03;;;14.81;46.61
41573;BME280;27286;47.870;19.006;2022-12-04T10:38:49;99914.25;;;14.50;47.78
41573;BME280;27286;47.870;19.006;2022-12-04T10:44:00;99916.72;;;13.60;50.78
41573;BME280;27286;47.870;19.006;2022-12-04T10:46:30;99911.72;;;13.55;50.99
41573;BME280;27286;47.870;19.006;2022-12-04T10:49:00;99908.47;;;13.32;51.62
41573;BME280;27286;47.870;19.006;2022-12-04T10:51:27;99905.72;;;13.35;51.47
41573;BME280;27286;47.870;19.006;2022-12-04T10:53:54;99906.63;;;13.34;51.34
41573;BME280;27286;47.870;19.006;2022-12-04T10:56:23;99905.22;;;13.45;50.93
41573;BME280;27286;47.870;19.006;2022-12-04T10:58:58;99902.19;;;13.73;50.76
41573;BME280;27286;47.870;19.006;2022-12-04T11:01:24;99901.66;;;14.03;48.97
41573;BME280;27286;47.870;19.006;2022-12-04T11:03:59;99900.59;;;13.88;49.57
41573;BME280;27286;47.870;19.006;2022-12-04T11:06:25;99895.53;;;13.66;49.82
41573;BME280;27286;47.870;19.006;2022-12-04T11:08:51;99893.28;;;13.77;49.67
41573;BME280;27286;47.870;19.006;2022-12-04T11:11:37;99876.00;;;13.73;50.19
41573;BME280;27286;47.870;19.006;2022-12-04T11:14:13;99878.44;;;13.78;49.55
41573;BME280;27286;47.870;19.006;2022-12-04T11:16:42;99881.63;;;14.02;49.38
41573;BME280;27286;47.870;19.006;2022-12-04T11:21:47;99866.31;;;13.75;50.40
41573;BME280;27286;47.870;19.006;2022-12-04T11:24:28;99864.78;;;13.71;50.40
41573;BME280;27286;47.870;19.006;2022-12-04T11:26:55;99864.19;;;13.83;49.76
41573;BME280;27286;47.870;19.006;2022-12-04T11:29:28;99863.94;;;14.24;48.53
41573;BME280;27286;47.870;19.006;2022-12-04T11:31:55;99856.59;;;14.67;49.31
41573;BME280;27286;47.870;19.006;2022-12-04T11:34:25;99853.59;;;15.08;48.05
41573;BME280;27286;47.870;19.006;2022-12-04T11:36:54;99840.97;;;15.47;46.84
41573;BME280;27286;47.870;19.006;2022-12-04T11:39:38;99851.81;;;15.73;46.23
41573;BME280;27286;47.870;19.006;2022-12-04T11:42:28;99827.59;;;15.68;45.77
41573;BME280;27286;47.870;19.006;2022-12-04T11:45:21;99823.16;;;16.00;45.96
41573;BME280;27286;47.870;19.006;2022-12-04T11:47:59;99809.75;;;16.78;43.46
41573;BME280;27286;47.870;19.006;2022-12-04T11:50:39;99817.06;;;17.30;41.55
41573;BME280;27286;47.870;19.006;2022-12-04T11:53:20;99804.88;;;16.87;42.63
41573;BME280;27286;47.870;19.006;2022-12-04T12:01:27;99816.63;;;16.67;42.06
41573;BME280;27286;47.870;19.006;2022-12-04T12:07:09;99816.56;;;15.29;44.61
41573;BME280;27286;47.870;19.006;2022-12-04T12:10:07;99811.59;;;14.92;45.87
41573;BME280;27286;47.870;19.006;2022-12-04T12:13:05;99809.88;;;14.40;46.54
41573;BME280;27286;47.870;19.006;2022-12-04T12:21:26;99808.88;;;13.55;50.38
41573;BME280;27286;47.870;19.006;2022-12-04T12:24:14;99801.81;;;13.38;50.41
41573;BME280;27286;47.870;19.006;2022-12-04T12:27:10;99792.75;;;13.64;49.85
41573;BME280;27286;47.870;19.006;2022-12-04T12:30:07;99796.41;;;13.60;49.90
41573;BME280;27286;47.870;19.006;2022-12-04T12:35:56;99803.00;;;13.50;49.07
41573;BME280;27286;47.870;19.006;2022-12-04T12:38:44;99799.72;;;13.07;51.03
41573;BME280;27286;47.870;19.006;2022-12-04T12:41:30;99799.66;;;13.29;48.55
41573;BME280;27286;47.870;19.006;2022-12-04T12:44:26;99807.13;;;13.18;50.33
41573;BME280;27286;47.870;19.006;2022-12-04T12:47:04;99807.31;;;13.13;48.72
41573;BME280;27286;47.870;19.006;2022-12-04T12:52:29;99815.47;;;12.87;49.22
41573;BME280;27286;47.870;19.006;2022-12-04T12:55:21;99817.69;;;12.76;48.71
41573;BME280;27286;47.870;19.006;2022-12-04T12:58:11;99807.97;;;12.59;50.40
41573;BME280;27286;47.870;19.006;2022-12-04T13:00:43;99808.78;;;12.20;51.49
41573;BME280;27286;47.870;19.006;2022-12-04T13:03:26;99805.31;;;11.99;52.20
41573;BME280;27286;47.870;19.006;2022-12-04T13:05:56;99807.59;;;11.63;53.63
41573;BME280;27286;47.870;19.006;2022-12-04T13:11:12;99792.19;;;11.35;52.90
41573;BME280;27286;47.870;19.006;2022-12-04T13:13:50;99797.41;;;11.35;53.50
41573;BME280;27286;47.870;19.006;2022-12-04T13:19:07;99799.28;;;11.54;53.95
41573;BME280;27286;47.870;19.006;2022-12-04T13:40:43;99794.94;;;10.11;58.65
41573;BME280;27286;47.870;19.006;2022-12-04T13:46:04;99793.28;;;9.82;60.90
41573;BME280;27286;47.870;19.006;2022-12-04T13:53:36;99808.91;;;9.26;62.17
41573;BME280;27286;47.870;19.006;2022-12-04T13:56:03;99806.84;;;9.08;63.60
41573;BME280;27286;47.870;19.006;2022-12-04T13:58:31;99803.00;;;8.90;64.29
41573;BME280;27286;47.870;19.006;2022-12-04T14:01:05;99821.69;;;8.71;65.03
41573;BME280;27286;47.870;19.006;2022-12-04T14:03:45;99817.34;;;8.73;64.91
41573;BME280;27286;47.870;19.006;2022-12-04T14:06:22;99829.13;;;8.85;64.90
41573;BME280;27286;47.870;19.006;2022-12-04T14:08:54;99821.03;;;8.96;64.63
41573;BME280;27286;47.870;19.006;2022-12-04T14:11:20;99818.00;;;8.49;65.33
41573;BME280;27286;47.870;19.006;2022-12-04T14:13:52;99810.63;;;8.34;65.33
41573;BME280;27286;47.870;19.006;2022-12-04T14:16:23;99821.38;;;8.17;65.72
41573;BME280;27286;47.870;19.006;2022-12-04T14:18:54;99822.75;;;7.98;67.12
41573;BME280;27286;47.870;19.006;2022-12-04T14:21:21;99818.63;;;7.89;67.77
41573;BME280;27286;47.870;19.006;2022-12-04T14:23:47;99828.84;;;7.95;67.66
41573;BME280;27286;47.870;19.006;2022-12-04T14:26:28;99823.72;;;7.57;69.47
41573;BME280;27286;47.870;19.006;2022-12-04T14:31:54;99839.69;;;7.37;70.19
41573;BME280;27286;47.870;19.006;2022-12-04T14:34:24;99836.47;;;7.27;70.98
41573;BME280;27286;47.870;19.006;2022-12-04T14:36:54;99834.22;;;7.88;68.77
41573;BME280;27286;47.870;19.006;2022-12-04T14:39:26;99836.69;;;7.57;69.15
41573;BME280;27286;47.870;19.006;2022-12-04T14:42:03;99829.28;;;7.38;69.88
41573;BME280;27286;47.870;19.006;2022-12-04T14:44:30;99831.34;;;7.24;70.46
41573;BME280;27286;47.870;19.006;2022-12-04T14:47:21;99835.66;;;7.64;68.59
41573;BME280;27286;47.870;19.006;2022-12-04T14:58:36;99822.25;;;7.05;71.47
41573;BME280;27286;47.870;19.006;2022-12-04T15:01:05;99823.81;;;7.13;71.29
41573;BME280;27286;47.870;19.006;2022-12-04T15:03:43;99827.88;;;6.83;72.14
41573;BME280;27286;47.870;19.006;2022-12-04T15:08:56;99823.00;;;6.67;73.50
41573;BME280;27286;47.870;19.006;2022-12-04T15:11:46;99839.06;;;6.84;73.25
41573;BME280;27286;47.870;19.006;2022-12-04T15:14:46;99834.81;;;6.81;73.54
41573;BME280;27286;47.870;19.006;2022-12-04T15:17:14;99835.59;;;6.85;73.77